Time;durP1;ratioP1;P1;durP2;ratioP2;P2;SDS_P1;SDS_P2;PMS_P1;PMS_P2;Temp;Humidity;BMP_temperature;BMP_pressure;BME280_temperature;BME280_humidity;BME280_pressure;Samples;Min_cycle;Max_cycle;Signal;HPM_P1;HPM_P2
2021/05/19 14:34:29;;;;;;;2.87;0.98;;;;;;;18.24;100.00;97944.25;1776942;79;22749;-68
2021/05/19 14:37:23;;;;;;;3.22;0.80;;;;;;;18.23;100.00;97945.67;1750183;82;20894;-69
2021/05/19 15:01:20;;;;;;;6.60;0.82;;;;;;;17.46;100.00;97960.03;1724000;82;21595;-66
2021/05/19 15:03:48;;;;;;;3.15;1.05;;;;;;;17.33;100.00;97962.48;1736890;82;20898;-69
2021/05/19 15:06:16;;;;;;;1.77;0.82;;;;;;;17.21;100.00;97963.12;1740890;80;21491;-69
2021/05/19 15:08:45;;;;;;;2.45;0.70;;;;;;;17.12;100.00;97960.47;1739289;82;20886;-67
2021/05/19 15:11:14;;;;;;;2.17;0.90;;;;;;;17.06;100.00;97969.24;1728730;82;20914;-68
2021/05/19 15:13:44;;;;;;;1.25;0.70;;;;;;;16.97;100.00;97981.20;1735955;82;21396;-69
2021/05/19 15:16:12;;;;;;;1.77;0.80;;;;;;;16.91;100.00;97985.50;1734951;81;21012;-68
2021/05/19 15:18:40;;;;;;;2.45;0.98;;;;;;;16.90;100.00;98002.42;1742223;80;21558;-69
2021/05/19 15:21:08;;;;;;;4.45;1.00;;;;;;;16.91;100.00;98010.80;1736869;80;21025;-70
2021/05/19 15:23:36;;;;;;;2.55;0.78;;;;;;;16.85;100.00;98008.45;1717166;82;21062;-69
2021/05/19 15:26:04;;;;;;;1.37;0.60;;;;;;;16.77;100.00;98009.30;1737073;82;20921;-70
2021/05/19 15:28:31;;;;;;;2.02;0.75;;;;;;;16.71;100.00;98023.77;1737329;80;20929;-71
2021/05/19 15:30:59;;;;;;;1.05;0.53;;;;;;;16.66;100.00;98031.12;1732879;82;21159;-69
2021/05/19 15:33:28;;;;;;;2.47;0.90;;;;;;;16.60;100.00;98037.57;1719708;82;20929;-69
2021/05/19 15:36:02;;;;;;;2.02;0.80;;;;;;;16.55;100.00;98037.36;1720490;82;21597;-70
2021/05/19 15:38:26;;;;;;;4.15;1.10;;;;;;;16.53;100.00;98041.90;1719653;83;20961;-70
2021/05/19 15:40:54;;;;;;;4.00;0.78;;;;;;;16.45;100.00;98043.59;1722935;82;20988;-70
2021/05/19 15:43:22;;;;;;;2.30;0.90;;;;;;;16.40;100.00;98046.08;1736877;82;21118;-69
2021/05/19 15:45:52;;;;;;;1.40;0.95;;;;;;;16.40;100.00;98046.08;1743758;81;21498;-69
2021/05/19 15:48:21;;;;;;;2.35;1.07;;;;;;;16.35;100.00;98047.16;1728678;82;21543;-68
2021/05/19 15:50:49;;;;;;;2.65;1.70;;;;;;;16.31;100.00;98053.56;1744169;81;21005;-69
2021/05/19 15:53:17;;;;;;;2.50;1.30;;;;;;;16.26;100.00;98048.92;1728056;82;20850;-69
2021/05/19 15:55:47;;;;;;;3.90;1.62;;;;;;;16.23;100.00;98050.39;1734484;82;21109;-69
2021/05/19 15:58:15;;;;;;;3.17;1.67;;;;;;;16.21;100.00;98054.92;1734430;82;21799;-67
2021/05/19 16:00:46;;;;;;;4.85;1.67;;;;;;;16.14;100.00;98058.80;1726998;82;20970;-70
2021/05/19 16:03:13;;;;;;;2.58;2.00;;;;;;;16.10;100.00;98059.88;1741113;80;20981;-70
2021/05/19 16:05:41;;;;;;;1.82;1.42;;;;;;;16.07;100.00;98065.30;1749714;82;20942;-69
2021/05/19 16:08:09;;;;;;;3.52;1.50;;;;;;;16.07;100.00;98066.63;1740644;81;21072;-69
2021/05/19 16:10:37;;;;;;;3.40;1.75;;;;;;;16.06;100.00;98073.75;1725467;80;20898;-70
2021/05/19 16:13:05;;;;;;;1.87;1.52;;;;;;;16.04;100.00;98075.62;1719816;82;21404;-68
2021/05/19 16:15:34;;;;;;;4.83;1.45;;;;;;;16.00;100.00;98071.83;1719961;82;21448;-68
2021/05/19 16:18:03;;;;;;;4.37;1.32;;;;;;;15.95;100.00;98081.81;1719853;83;21399;-68
2021/05/19 16:20:31;;;;;;;2.17;1.05;;;;;;;15.91;100.00;98080.23;1719949;83;21062;-69
2021/05/19 16:22:59;;;;;;;4.35;1.25;;;;;;;15.90;100.00;98078.50;1719826;82;21607;-69
2021/05/19 16:25:30;;;;;;;5.53;1.10;;;;;;;15.89;100.00;98082.09;1719885;83;21669;-70
2021/05/19 16:27:59;;;;;;;1.57;1.07;;;;;;;15.86;100.00;98079.10;1719752;82;21441;-69
2021/05/19 16:31:11;;;;;;;2.65;1.30;;;;;;;15.82;100.00;98073.52;1719718;83;20902;-74
2021/05/19 16:34:17;;;;;;;1.95;1.67;;;;;;;15.83;100.00;98072.59;1698057;81;21309;-69
2021/05/19 16:37:00;;;;;;;4.40;1.85;;;;;;;15.81;100.00;98073.13;1686259;82;21434;-74
2021/05/19 16:39:35;;;;;;;5.10;2.33;;;;;;;15.77;100.00;98075.52;1733241;80;21534;-70
2021/05/19 16:42:09;;;;;;;1.98;1.72;;;;;;;15.74;100.00;98072.53;1748208;80;20950;-72
2021/05/19 16:44:42;;;;;;;4.53;2.08;;;;;;;15.73;100.00;98081.44;1744639;80;20866;-69
2021/05/19 16:47:10;;;;;;;2.72;1.40;;;;;;;15.73;100.00;98090.75;1740429;80;21083;-71
2021/05/19 16:49:38;;;;;;;2.02;1.57;;;;;;;15.69;100.00;98097.59;1733746;82;21610;-72
2021/05/19 16:52:08;;;;;;;3.33;1.80;;;;;;;15.69;100.00;98094.47;1728810;82;20997;-72
2021/05/19 16:54:39;;;;;;;4.35;1.70;;;;;;;15.71;100.00;98097.92;1727891;80;21124;-72
2021/05/19 16:57:08;;;;;;;7.42;1.85;;;;;;;15.74;100.00;98099.58;1724558;82;21653;-71
2021/05/19 16:59:37;;;;;;;2.65;1.70;;;;;;;15.74;100.00;98092.47;1727960;82;22249;-72
2021/05/19 17:04:54;;;;;;;5.08;2.33;;;;;;;15.76;100.00;98097.72;1742526;82;20973;-73
2021/05/19 17:07:25;;;;;;;2.20;2.00;;;;;;;15.74;100.00;98096.46;1735060;80;21526;-71
2021/05/19 17:09:54;;;;;;;4.58;1.90;;;;;;;15.77;100.00;98095.47;1733993;82;21033;-70
2021/05/19 17:12:26;;;;;;;3.22;2.35;;;;;;;15.79;100.00;98098.92;1725188;80;21035;-69
2021/05/19 17:14:56;;;;;;;;;;;;;;;15.79;100.00;98111.34;1727986;82;20984;-71
2021/05/19 17:17:24;;;;;;;3.75;2.45;;;;;;;15.79;100.00;98120.66;1731108;80;20224;-72
2021/05/19 17:19:52;;;;;;;3.10;2.20;;;;;;;15.80;100.00;98135.22;1730510;82;21574;-70
2021/05/19 17:22:23;;;;;;;3.87;2.02;;;;;;;15.80;100.00;98143.19;1735967;80;20992;-71
2021/05/19 17:24:53;;;;;;;;;;;;;;;15.77;100.00;98147.31;1735904;80;22968;-69
2021/05/19 17:27:22;;;;;;;10.68;3.70;;;;;;;15.76;100.00;98154.03;1733347;80;20180;-69
2021/05/19 17:29:51;;;;;;;6.47;3.52;;;;;;;15.72;100.00;98146.18;1732321;82;20957;-69
2021/05/19 17:32:21;;;;;;;4.00;2.92;;;;;;;15.68;100.00;98152.56;1733525;80;20981;-71
2021/05/19 17:34:50;;;;;;;2.58;2.22;;;;;;;15.68;100.00;98155.22;1708622;81;21056;-72
2021/05/19 17:37:18;;;;;;;7.22;4.25;;;;;;;15.65;100.00;98149.16;1741939;81;21084;-71
2021/05/19 17:39:48;;;;;;;8.30;5.17;;;;;;;15.60;100.00;98144.02;1731330;81;21471;-68
2021/05/19 17:42:19;;;;;;;9.48;7.75;;;;;;;15.55;100.00;98131.81;1752473;80;20925;-70
2021/05/19 17:44:48;;;;;;;11.68;9.80;;;;;;;15.54;100.00;98128.29;1747915;80;20927;-69
2021/05/19 17:47:16;;;;;;;4.75;4.03;;;;;;;15.54;100.00;98130.95;1738147;80;20945;-68
2021/05/19 17:49:45;;;;;;;6.72;4.20;;;;;;;15.54;100.00;98131.41;1727666;81;21672;-68
2021/05/19 17:52:17;;;;;;;2.55;2.35;;;;;;;15.54;100.00;98132.28;1727421;81;20889;-68
2021/05/19 17:54:46;;;;;;;2.60;2.10;;;;;;;15.50;100.00;98124.50;1700723;83;20942;-69
2021/05/19 17:57:15;;;;;;;1.55;1.40;;;;;;;15.47;100.00;98121.51;1727470;81;21004;-70
2021/05/19 17:59:44;;;;;;;1.85;1.32;;;;;;;15.45;100.00;98122.03;1745027;81;20893;-71
2021/05/19 18:02:15;;;;;;;1.80;1.30;;;;;;;15.44;100.00;98124.30;1752229;80;21018;-70
2021/05/19 18:04:43;;;;;;;3.35;1.37;;;;;;;15.41;100.00;98125.28;1738132;80;20905;-69
2021/05/19 18:07:12;;;;;;;2.42;1.72;;;;;;;15.42;100.00;98132.80;1746286;81;21376;-70
2021/05/19 18:09:45;;;;;;;2.17;1.50;;;;;;;15.40;100.00;98130.20;1757719;80;20941;-70
2021/05/19 18:12:16;;;;;;;29.50;1.60;;;;;;;15.36;100.00;98133.05;1739226;80;20873;-69
2021/05/19 18:14:46;;;;;;;2.98;1.80;;;;;;;15.40;100.00;98131.99;1728147;83;21128;-72
2021/05/19 18:17:18;;;;;;;3.75;2.05;;;;;;;15.40;100.00;98138.17;1730688;81;20881;-74
2021/05/19 18:19:50;;;;;;;4.50;2.00;;;;;;;15.36;100.00;98147.20;1745142;81;21416;-72
2021/05/19 18:22:21;;;;;;;3.80;2.42;;;;;;;15.34;100.00;98147.73;1728219;81;20921;-72
2021/05/19 18:24:55;;;;;;;5.55;2.95;;;;;;;15.30;100.00;98146.59;1744618;81;21009;-72
2021/05/19 18:27:22;;;;;;;;;;;;;;;15.28;100.00;98150.64;1742281;81;20957;-74
2021/05/19 18:30:03;;;;;;;6.62;3.67;;;;;;;15.26;100.00;98148.51;1728431;83;20496;-75
2021/05/19 18:33:06;;;;;;;7.62;3.60;;;;;;;15.22;100.00;98152.68;1727110;82;20897;-77
2021/05/19 18:37:35;;;;;;;7.47;5.28;;;;;;;15.15;100.00;98155.19;1724311;81;20922;-73
2021/05/19 18:40:06;;;;;;;6.35;4.50;;;;;;;15.14;100.00;98167.60;1701917;82;21188;-73
2021/05/19 18:42:35;;;;;;;7.37;4.25;;;;;;;15.14;100.00;98167.60;1701189;82;20883;-72
2021/05/19 18:45:06;;;;;;;2.83;2.20;;;;;;;15.10;100.00;98177.45;1719632;81;21610;-72
2021/05/19 18:47:34;;;;;;;3.72;1.60;;;;;;;15.08;100.00;98176.65;1720922;81;21497;-72
2021/05/19 18:50:05;;;;;;;2.42;1.25;;;;;;;15.03;100.00;98173.31;1722630;81;20997;-72
2021/05/19 18:52:33;;;;;;;1.98;1.20;;;;;;;15.02;100.00;98178.22;1721167;81;21473;-71
2021/05/19 18:55:02;;;;;;;3.85;1.42;;;;;;;15.01;100.00;98184.45;1719517;81;21542;-72
2021/05/19 18:57:31;;;;;;;1.60;0.88;;;;;;;15.02;100.00;98180.88;1721607;81;21001;-72
2021/05/19 19:00:00;;;;;;;1.55;0.90;;;;;;;15.03;100.00;98183.06;1722624;82;21040;-72
2021/05/19 19:02:27;;;;;;;1.45;1.00;;;;;;;15.02;100.00;98178.68;1722821;81;21056;-73
2021/05/19 19:05:00;;;;;;;3.22;1.32;;;;;;;15.02;100.00;98178.22;1721752;81;21486;-74
2021/05/19 19:07:26;;;;;;;1.62;1.10;;;;;;;15.04;100.00;98175.50;1719829;81;20938;-67
2021/05/19 19:09:53;;;;;;;2.65;1.25;;;;;;;15.04;100.00;98174.17;1720945;81;20930;-72
2021/05/19 19:12:22;;;;;;;4.22;1.40;;;;;;;15.05;100.00;98176.77;1725458;81;20942;-72
2021/05/19 19:14:50;;;;;;;2.17;1.70;;;;;;;15.03;100.00;98175.09;1736494;81;20895;-71
2021/05/19 19:17:17;;;;;;;3.67;2.08;;;;;;;15.04;100.00;98174.17;1736689;82;21051;-73
2021/05/19 19:19:45;;;;;;;7.33;2.30;;;;;;;15.03;100.00;98165.34;1736620;81;20914;-73
2021/05/19 19:22:13;;;;;;;2.98;1.87;;;;;;;15.00;100.00;98165.47;1736588;81;21480;-72
2021/05/19 19:24:43;;;;;;;1.98;1.42;;;;;;;15.00;100.00;98172.11;1716472;82;21011;-76
2021/05/19 19:27:11;;;;;;;2.40;1.20;;;;;;;14.97;100.00;98172.69;1736686;81;21064;-72
2021/05/19 19:29:39;;;;;;;1.92;1.47;;;;;;;14.94;100.00;98173.67;1736705;81;21098;-75
2021/05/19 19:32:07;;;;;;;2.40;1.10;;;;;;;14.94;100.00;98180.77;1737039;82;20933;-74
2021/05/19 19:34:35;;;;;;;2.15;1.40;;;;;;;14.93;100.00;98180.37;1737309;81;20899;-75
2021/05/19 19:37:02;;;;;;;3.55;1.35;;;;;;;14.89;100.00;98176.97;1750718;80;20906;-73
2021/05/19 19:39:30;;;;;;;2.50;1.20;;;;;;;14.89;100.00;98182.74;1750635;81;20897;-76
2021/05/19 19:41:58;;;;;;;3.22;1.55;;;;;;;14.86;100.00;98183.73;1750696;81;21050;-75
2021/05/19 19:44:27;;;;;;;3.58;1.72;;;;;;;14.83;100.00;98175.02;1750690;81;20913;-73
2021/05/19 19:46:54;;;;;;;3.85;1.72;;;;;;;14.80;100.00;98179.52;1750789;82;20910;-75
2021/05/19 19:49:23;;;;;;;4.22;2.27;;;;;;;14.81;100.00;98184.37;1750695;81;21459;-75
2021/05/19 19:51:50;;;;;;;4.03;2.35;;;;;;;14.81;100.00;98179.06;1750832;80;20914;-73
2021/05/19 19:54:19;;;;;;;4.47;2.37;;;;;;;14.82;100.00;98179.46;1750884;80;21603;-73
2021/05/19 19:56:48;;;;;;;5.92;3.55;;;;;;;14.83;100.00;98178.54;1750781;80;21443;-74
2021/05/19 19:59:15;;;;;;;6.15;3.90;;;;;;;14.84;100.00;98181.59;1750835;80;20914;-75
2021/05/19 20:01:54;;;;;;;5.10;4.30;;;;;;;14.86;100.00;98184.19;1750910;80;21429;-74
2021/05/19 20:04:18;;;;;;;5.78;4.17;;;;;;;14.86;100.00;98178.88;1750088;82;20953;-75
2021/05/19 20:06:46;;;;;;;5.20;4.30;;;;;;;14.88;100.00;98183.20;1746833;82;21050;-74
2021/05/19 20:09:14;;;;;;;4.78;4.37;;;;;;;14.90;100.00;98181.82;1749333;82;20918;-74
2021/05/19 20:11:42;;;;;;;5.35;4.85;;;;;;;14.91;100.00;98191.52;1749787;82;21400;-75
2021/05/19 20:14:11;;;;;;;5.92;5.12;;;;;;;14.93;100.00;98181.70;1750735;80;21460;-74
2021/05/19 20:16:46;;;;;;;8.33;5.25;;;;;;;14.91;100.00;98185.74;1682857;85;20914;-75
2021/05/19 20:19:16;;;;;;;5.22;4.45;;;;;;;14.91;100.00;98174.26;1748220;81;21558;-77
2021/05/19 20:21:48;;;;;;;7.83;6.58;;;;;;;14.89;100.00;98175.64;1721432;82;21366;-77
2021/05/19 20:24:19;;;;;;;10.10;6.97;;;;;;;14.88;100.00;98175.24;1684589;83;21054;-76
2021/05/19 20:26:47;;;;;;;7.28;6.58;;;;;;;14.86;100.00;98169.13;1683304;82;20976;-76
2021/05/19 20:29:18;;;;;;;6.40;5.75;;;;;;;14.85;100.00;98166.06;1749021;82;20938;-76
2021/05/19 20:31:47;;;;;;;8.05;5.78;;;;;;;14.83;100.00;98161.74;1749688;82;21053;-77
2021/05/19 20:34:22;;;;;;;6.72;5.95;;;;;;;14.81;100.00;98151.19;1711336;84;20931;-76
2021/05/19 20:36:58;;;;;;;7.75;6.05;;;;;;;14.77;100.00;98152.23;1737813;81;21405;-75
2021/05/19 20:39:33;;;;;;;7.60;5.95;;;;;;;14.71;100.00;98143.17;1735962;82;21397;-74
2021/05/19 20:42:13;;;;;;;5.87;5.20;;;;;;;14.67;100.00;98132.27;1672571;85;20900;-72
2021/05/19 20:44:47;;;;;;;5.78;4.80;;;;;;;14.63;100.00;98134.15;1735799;82;21063;-71
2021/05/19 20:47:13;;;;;;;7.08;5.47;;;;;;;14.59;100.00;98118.41;1734784;82;21444;-75
2021/05/19 20:49:44;;;;;;;7.25;5.53;;;;;;;14.54;100.00;98127.00;1743235;81;21431;-74
2021/05/19 20:52:12;;;;;;;6.42;5.62;;;;;;;14.51;100.00;98122.68;1734747;81;20946;-75
2021/05/19 20:54:43;;;;;;;5.47;4.70;;;;;;;14.49;100.00;98131.16;1707782;84;20886;-75
2021/05/19 20:57:18;;;;;;;8.65;4.62;;;;;;;14.47;100.00;98128.56;1707941;82;21797;-74
2021/05/19 20:59:46;;;;;;;5.65;4.53;;;;;;;14.44;100.00;98127.35;1708729;82;20882;-72
2021/05/19 21:02:15;;;;;;;5.75;4.37;;;;;;;14.40;100.00;98131.48;1708912;82;20910;-75
2021/05/19 21:04:45;;;;;;;5.03;4.53;;;;;;;14.37;100.00;98131.13;1662098;85;21464;-74
2021/05/19 21:07:18;;;;;;;5.10;3.98;;;;;;;14.33;100.00;98129.52;1707988;82;20938;-74
2021/05/19 21:09:49;;;;;;;6.40;3.95;;;;;;;14.29;100.00;98135.86;1662372;85;21050;-73
2021/05/19 21:12:21;;;;;;;7.30;4.25;;;;;;;14.31;100.00;98133.15;1731103;81;20921;-74
2021/05/19 21:14:54;;;;;;;5.35;4.10;;;;;;;14.28;100.00;98134.13;1737138;82;20903;-74
2021/05/19 21:17:23;;;;;;;6.12;4.55;;;;;;;14.24;100.00;98138.28;1737393;81;20985;-75
2021/05/19 21:19:54;;;;;;;6.12;4.12;;;;;;;14.21;100.00;98145.02;1737050;81;20930;-75
2021/05/19 21:22:22;;;;;;;4.80;4.22;;;;;;;14.19;100.00;98146.41;1735174;81;20997;-75
2021/05/19 21:24:50;;;;;;;5.12;3.98;;;;;;;14.19;100.00;98139.77;1737240;81;21508;-75
2021/05/19 21:27:24;;;;;;;6.65;4.45;;;;;;;14.18;100.00;98140.66;1721486;82;20910;-75
2021/05/19 21:29:58;;;;;;;5.95;4.42;;;;;;;14.15;100.00;98138.12;1715734;82;21484;-75
2021/05/19 21:32:25;;;;;;;5.40;3.92;;;;;;;14.11;100.00;98142.67;1658063;84;20994;-75
2021/05/19 21:34:53;;;;;;;4.45;3.50;;;;;;;14.11;100.00;98151.09;1707859;84;21047;-75
2021/05/19 21:37:24;;;;;;;3.80;3.50;;;;;;;14.08;100.00;98151.20;1733318;82;20934;-75
2021/05/19 21:39:55;;;;;;;4.50;3.50;;;;;;;14.05;100.00;98154.83;1745675;80;21428;-72
2021/05/19 21:42:30;;;;;;;3.90;3.55;;;;;;;14.04;100.00;98158.41;1728229;82;21460;-73
2021/05/19 21:45:52;;;;;;;4.30;3.45;;;;;;;14.03;100.00;98163.30;1745298;81;20898;-74
2021/05/19 21:47:59;;;;;;;6.55;3.42;;;;;;;14.02;100.00;98163.36;1699522;83;20905;-74
2021/05/19 21:50:25;;;;;;;3.72;3.42;;;;;;;14.03;100.00;98171.25;1717163;82;20957;-74
2021/05/19 21:53:01;;;;;;;4.50;3.45;;;;;;;14.05;100.00;98167.22;1745331;80;21017;-74
2021/05/19 21:55:38;;;;;;;5.15;4.00;;;;;;;14.03;100.00;98169.06;1740885;80;20922;-72
2021/05/19 21:58:15;;;;;;;5.22;3.87;;;;;;;13.99;100.00;98172.74;1727808;81;21409;-74
2021/05/19 22:00:51;;;;;;;3.80;3.40;;;;;;;13.92;100.00;98172.09;1718616;82;21044;-72
2021/05/19 22:03:29;;;;;;;6.05;3.70;;;;;;;13.83;100.00;98169.30;1713820;82;21004;-74
2021/05/19 22:06:11;;;;;;;4.62;3.58;;;;;;;13.75;100.00;98166.05;1713514;82;21409;-74
2021/05/19 22:08:57;;;;;;;4.37;3.98;;;;;;;13.66;100.00;98171.64;1711840;82;21440;-74
2021/05/19 22:11:35;;;;;;;7.75;4.10;;;;;;;13.61;100.00;98173.58;1727458;82;20965;-73
2021/05/19 22:14:19;;;;;;;4.03;3.62;;;;;;;13.57;100.00;98173.28;1731867;80;21392;-74
2021/05/19 22:16:54;;;;;;;3.37;2.62;;;;;;;13.54;100.00;98172.05;1692982;83;20937;-74
2021/05/19 22:22:34;;;;;;;6.80;4.17;;;;;;;13.48;100.00;98162.98;1713233;80;20945;-74
2021/05/19 22:28:01;;;;;;;7.00;3.27;;;;;;;13.49;100.00;98163.39;1744816;81;21044;-75
2021/05/19 22:30:40;;;;;;;6.92;3.12;;;;;;;13.48;100.00;98161.67;1745254;82;20882;-75
2021/05/19 22:33:20;;;;;;;4.78;3.60;;;;;;;13.46;100.00;98159.06;1736484;82;20929;-73
2021/05/19 22:36:00;;;;;;;6.67;3.67;;;;;;;13.45;100.00;98161.77;1745462;80;20998;-74
2021/05/19 22:38:34;;;;;;;4.22;3.33;;;;;;;13.41;100.00;98159.68;1738839;82;21446;-75
2021/05/19 22:41:23;;;;;;;3.35;2.80;;;;;;;13.39;100.00;98155.35;1742447;80;20913;-74
2021/05/19 22:43:47;;;;;;;4.45;3.10;;;;;;;13.41;100.00;98157.03;1734630;80;20906;-73
2021/05/19 22:46:47;;;;;;;5.42;2.90;;;;;;;13.41;100.00;98164.11;1745578;80;20878;-74
2021/05/19 22:49:17;;;;;;;4.70;3.45;;;;;;;13.37;100.00;98162.02;1730043;80;21413;-74
2021/05/19 22:52:24;;;;;;;4.78;3.65;;;;;;;13.34;100.00;98163.45;1735333;82;21419;-73
2021/05/19 22:55:05;;;;;;;4.47;2.98;;;;;;;13.30;100.00;98168.90;1723485;82;21047;-74
2021/05/19 22:57:49;;;;;;;;;;;;;;;;;;;;;
2021/05/19 23:00:20;;;;;;;6.85;3.72;;;;;;;13.28;100.00;98168.08;1711516;82;21563;-75
2021/05/19 23:05:48;;;;;;;5.70;3.75;;;;;;;13.21;100.00;98168.25;1705922;82;20906;-75
2021/05/19 23:11:34;;;;;;;8.18;2.65;;;;;;;13.16;100.00;98170.14;1715744;82;20935;-75
2021/05/19 23:14:23;;;;;;;3.42;2.52;;;;;;;13.14;100.00;98168.00;1674942;84;21487;-74
2021/05/19 23:17:10;;;;;;;2.85;2.52;;;;;;;13.15;100.00;98168.88;1711889;82;20913;-75
2021/05/19 23:20:13;;;;;;;2.90;2.58;;;;;;;13.14;100.00;98172.44;1690902;83;20881;-74
2021/05/19 23:28:15;;;;;;;2.90;2.40;;;;;;;13.12;100.00;98173.81;1721309;82;20901;-74
2021/05/19 23:30:53;;;;;;;3.35;2.58;;;;;;;13.10;100.00;98176.96;1691447;82;21468;-75
2021/05/19 23:33:43;;;;;;;2.70;2.17;;;;;;;13.10;100.00;98170.80;1731885;82;21404;-74
2021/05/19 23:36:32;;;;;;;5.12;2.22;;;;;;;13.08;100.00;98170.85;1690036;83;21359;-74
2021/05/19 23:39:24;;;;;;;3.87;2.37;;;;;;;13.07;100.00;98173.55;1709637;82;20986;-74
2021/05/19 23:42:30;;;;;;;3.87;2.22;;;;;;;13.04;100.00;98173.19;1720778;81;21428;-73
2021/05/19 23:45:17;;;;;;;5.17;2.52;;;;;;;13.02;100.00;98168.40;1706265;82;21520;-74
2021/05/19 23:48:08;;;;;;;5.75;2.30;;;;;;;13.00;100.00;98168.91;1655072;83;20914;-75
2021/05/19 23:50:51;;;;;;;5.45;2.30;;;;;;;12.99;100.00;98169.81;1703755;82;21068;-75
2021/05/19 23:53:14;;;;;;;6.12;2.08;;;;;;;12.98;100.00;98171.19;1731280;82;21417;-75
2021/05/19 23:55:54;;;;;;;3.58;2.00;;;;;;;12.95;100.00;98173.48;1734621;82;21452;-74
2021/05/19 23:58:39;;;;;;;4.92;2.20;;;;;;;12.91;100.00;98172.70;1705979;82;20918;-74
